sensor_id;sensor_type;location;lat;lon;timestamp;temperature;humidity
23729;DHT22;12045;60.214;24.724;2023-07-20T00:02:29;14.40;99.90
23729;DHT22;12045;60.214;24.724;2023-07-20T00:04:57;14.40;99.90
23729;DHT22;12045;60.214;24.724;2023-07-20T00:07:26;14.50;99.90
23729;DHT22;12045;60.214;24.724;2023-07-20T00:09:54;14.50;99.90
23729;DHT22;12045;60.214;24.724;2023-07-20T00:12:26;14.50;99.90
23729;DHT22;12045;60.214;24.724;2023-07-20T00:15:08;14.50;99.90
23729;DHT22;12045;60.214;24.724;2023-07-20T00:17:37;14.40;99.90
23729;DHT22;12045;60.214;24.724;2023-07-20T00:20:06;14.20;99.90
23729;DHT22;12045;60.214;24.724;2023-07-20T00:22:34;14.20;99.90
23729;DHT22;12045;60.214;24.724;2023-07-20T00:25:03;14.10;99.90
23729;DHT22;12045;60.214;24.724;2023-07-20T00:27:31;14.10;99.90
23729;DHT22;12045;60.214;24.724;2023-07-20T00:29:59;14.10;99.90
23729;DHT22;12045;60.214;24.724;2023-07-20T00:32:35;14.10;99.90
23729;DHT22;12045;60.214;24.724;2023-07-20T00:35:04;14.20;99.90
23729;DHT22;12045;60.214;24.724;2023-07-20T00:37:38;14.20;99.90
23729;DHT22;12045;60.214;24.724;2023-07-20T00:40:08;14.10;99.90
23729;DHT22;12045;60.214;24.724;2023-07-20T00:42:37;14.10;99.90
23729;DHT22;12045;60.214;24.724;2023-07-20T00:45:07;14.10;99.90
23729;DHT22;12045;60.214;24.724;2023-07-20T00:47:41;14.10;99.90
23729;DHT22;12045;60.214;24.724;2023-07-20T00:50:12;14.10;99.90
23729;DHT22;12045;60.214;24.724;2023-07-20T00:52:45;14.10;99.90
23729;DHT22;12045;60.214;24.724;2023-07-20T00:55:14;14.20;99.90
23729;DHT22;12045;60.214;24.724;2023-07-20T00:57:48;14.20;99.90
23729;DHT22;12045;60.214;24.724;2023-07-20T01:00:18;14.30;99.90
23729;DHT22;12045;60.214;24.724;2023-07-20T01:02:46;14.40;99.90
23729;DHT22;12045;60.214;24.724;2023-07-20T01:05:18;14.30;99.90
23729;DHT22;12045;60.214;24.724;2023-07-20T01:07:58;14.20;99.90
23729;DHT22;12045;60.214;24.724;2023-07-20T01:10:43;14.20;99.90
23729;DHT22;12045;60.214;24.724;2023-07-20T01:13:16;14.20;99.90
23729;DHT22;12045;60.214;24.724;2023-07-20T01:16:00;14.20;99.90
23729;DHT22;12045;60.214;24.724;2023-07-20T01:18:31;14.20;99.90
23729;DHT22;12045;60.214;24.724;2023-07-20T01:21:08;14.20;99.90
23729;DHT22;12045;60.214;24.724;2023-07-20T01:24:05;14.30;99.90
23729;DHT22;12045;60.214;24.724;2023-07-20T01:26:38;14.20;99.90
23729;DHT22;12045;60.214;24.724;2023-07-20T01:29:35;14.20;99.90
23729;DHT22;12045;60.214;24.724;2023-07-20T01:32:10;14.20;99.90
23729;DHT22;12045;60.214;24.724;2023-07-20T01:34:52;14.30;99.90
23729;DHT22;12045;60.214;24.724;2023-07-20T01:37:24;14.40;99.90
23729;DHT22;12045;60.214;24.724;2023-07-20T01:39:55;14.50;99.90
23729;DHT22;12045;60.214;24.724;2023-07-20T01:42:31;14.60;99.90
23729;DHT22;12045;60.214;24.724;2023-07-20T01:45:01;14.60;99.90
23729;DHT22;12045;60.214;24.724;2023-07-20T01:47:29;14.50;99.90
23729;DHT22;12045;60.214;24.724;2023-07-20T01:49:57;14.60;99.90
23729;DHT22;12045;60.214;24.724;2023-07-20T01:52:27;14.70;99.90
23729;DHT22;12045;60.214;24.724;2023-07-20T01:54:57;14.70;99.90
23729;DHT22;12045;60.214;24.724;2023-07-20T01:57:26;14.70;99.90
23729;DHT22;12045;60.214;24.724;2023-07-20T01:59:55;14.60;99.90
23729;DHT22;12045;60.214;24.724;2023-07-20T02:02:28;14.60;99.90
23729;DHT22;12045;60.214;24.724;2023-07-20T02:04:57;14.70;99.90
23729;DHT22;12045;60.214;24.724;2023-07-20T02:07:25;14.70;99.90
23729;DHT22;12045;60.214;24.724;2023-07-20T02:09:53;14.90;99.90
23729;DHT22;12045;60.214;24.724;2023-07-20T02:12:23;14.70;99.90
23729;DHT22;12045;60.214;24.724;2023-07-20T02:14:54;14.70;99.90
23729;DHT22;12045;60.214;24.724;2023-07-20T02:17:27;14.60;99.90
23729;DHT22;12045;60.214;24.724;2023-07-20T02:19:59;14.50;99.90
23729;DHT22;12045;60.214;24.724;2023-07-20T02:22:28;14.40;99.90
23729;DHT22;12045;60.214;24.724;2023-07-20T02:24:56;14.30;99.90
23729;DHT22;12045;60.214;24.724;2023-07-20T02:27:31;14.30;99.90
23729;DHT22;12045;60.214;24.724;2023-07-20T02:29:59;14.40;99.90
23729;DHT22;12045;60.214;24.724;2023-07-20T02:32:29;14.50;99.90
23729;DHT22;12045;60.214;24.724;2023-07-20T02:35:00;14.60;99.90
23729;DHT22;12045;60.214;24.724;2023-07-20T02:37:28;14.60;99.90
23729;DHT22;12045;60.214;24.724;2023-07-20T02:39:56;14.60;99.90
23729;DHT22;12045;60.214;24.724;2023-07-20T02:42:24;14.60;99.90
23729;DHT22;12045;60.214;24.724;2023-07-20T02:44:55;14.70;99.90
23729;DHT22;12045;60.214;24.724;2023-07-20T02:47:29;14.70;99.90
23729;DHT22;12045;60.214;24.724;2023-07-20T02:49:57;14.70;99.90
23729;DHT22;12045;60.214;24.724;2023-07-20T02:52:28;14.70;99.90
23729;DHT22;12045;60.214;24.724;2023-07-20T02:54:59;14.60;99.90
23729;DHT22;12045;60.214;24.724;2023-07-20T02:57:28;14.50;99.90
23729;DHT22;12045;60.214;24.724;2023-07-20T02:59:56;14.60;99.90
23729;DHT22;12045;60.214;24.724;2023-07-20T03:02:24;14.60;99.90
23729;DHT22;12045;60.214;24.724;2023-07-20T03:04:54;14.70;99.90
23729;DHT22;12045;60.214;24.724;2023-07-20T03:07:27;14.80;99.90
23729;DHT22;12045;60.214;24.724;2023-07-20T03:10:04;14.90;99.90
23729;DHT22;12045;60.214;24.724;2023-07-20T03:12:36;14.90;99.90
23729;DHT22;12045;60.214;24.724;2023-07-20T03:15:18;14.90;99.90
23729;DHT22;12045;60.214;24.724;2023-07-20T03:17:48;14.90;99.90
23729;DHT22;12045;60.214;24.724;2023-07-20T03:20:20;14.80;99.90
23729;DHT22;12045;60.214;24.724;2023-07-20T03:22:49;14.60;99.90
23729;DHT22;12045;60.214;24.724;2023-07-20T03:25:21;14.60;99.90
23729;DHT22;12045;60.214;24.724;2023-07-20T03:27:55;14.60;99.90
23729;DHT22;12045;60.214;24.724;2023-07-20T03:30:23;14.80;99.90
23729;DHT22;12045;60.214;24.724;2023-07-20T03:32:54;14.80;99.90
23729;DHT22;12045;60.214;24.724;2023-07-20T03:35:22;14.70;99.90
23729;DHT22;12045;60.214;24.724;2023-07-20T03:37:52;14.70;99.90
23729;DHT22;12045;60.214;24.724;2023-07-20T03:40:22;14.70;99.90
23729;DHT22;12045;60.214;24.724;2023-07-20T03:42:52;14.60;99.90
23729;DHT22;12045;60.214;24.724;2023-07-20T03:45:20;14.70;99.90
23729;DHT22;12045;60.214;24.724;2023-07-20T03:47:51;14.60;99.90
23729;DHT22;12045;60.214;24.724;2023-07-20T03:50:19;14.70;99.90
23729;DHT22;12045;60.214;24.724;2023-07-20T03:52:49;14.70;99.90
23729;DHT22;12045;60.214;24.724;2023-07-20T03:55:16;14.50;99.90
23729;DHT22;12045;60.214;24.724;2023-07-20T03:57:45;14.40;99.90
23729;DHT22;12045;60.214;24.724;2023-07-20T04:00:16;14.40;99.90
23729;DHT22;12045;60.214;24.724;2023-07-20T04:02:45;14.40;99.90
23729;DHT22;12045;60.214;24.724;2023-07-20T04:05:17;14.50;99.90
23729;DHT22;12045;60.214;24.724;2023-07-20T04:07:46;14.40;99.90
23729;DHT22;12045;60.214;24.724;2023-07-20T04:10:14;14.40;99.90
23729;DHT22;12045;60.214;24.724;2023-07-20T04:12:42;14.50;99.90
23729;DHT22;12045;60.214;24.724;2023-07-20T04:15:14;14.50;99.90
23729;DHT22;12045;60.214;24.724;2023-07-20T04:17:42;14.60;99.90
23729;DHT22;12045;60.214;24.724;2023-07-20T04:20:10;14.70;99.90
23729;DHT22;12045;60.214;24.724;2023-07-20T04:22:38;14.70;99.90
23729;DHT22;12045;60.214;24.724;2023-07-20T04:25:08;14.80;99.90
23729;DHT22;12045;60.214;24.724;2023-07-20T04:27:36;14.80;99.90
23729;DHT22;12045;60.214;24.724;2023-07-20T04:30:06;14.70;99.90
23729;DHT22;12045;60.214;24.724;2023-07-20T04:32:35;14.60;99.90
23729;DHT22;12045;60.214;24.724;2023-07-20T04:35:07;14.60;99.90
23729;DHT22;12045;60.214;24.724;2023-07-20T04:54:01;14.80;99.90
23729;DHT22;12045;60.214;24.724;2023-07-20T04:56:29;14.80;99.90
23729;DHT22;12045;60.214;24.724;2023-07-20T04:58:57;14.80;99.90
23729;DHT22;12045;60.214;24.724;2023-07-20T05:01:27;14.90;99.90
23729;DHT22;12045;60.214;24.724;2023-07-20T05:03:56;14.90;99.90
23729;DHT22;12045;60.214;24.724;2023-07-20T05:06:25;14.90;99.90
23729;DHT22;12045;60.214;24.724;2023-07-20T05:08:53;15.10;99.90
23729;DHT22;12045;60.214;24.724;2023-07-20T05:11:21;15.10;99.90
23729;DHT22;12045;60.214;24.724;2023-07-20T05:13:48;15.30;99.90
23729;DHT22;12045;60.214;24.724;2023-07-20T05:16:17;15.40;99.90
23729;DHT22;12045;60.214;24.724;2023-07-20T05:18:51;15.70;99.90
23729;DHT22;12045;60.214;24.724;2023-07-20T05:46:03;16.40;99.90
23729;DHT22;12045;60.214;24.724;2023-07-20T05:55:10;16.90;99.90
23729;DHT22;12045;60.214;24.724;2023-07-20T05:57:38;16.90;99.90
23729;DHT22;12045;60.214;24.724;2023-07-20T06:00:10;17.00;99.90
23729;DHT22;12045;60.214;24.724;2023-07-20T06:02:42;17.10;99.90
23729;DHT22;12045;60.214;24.724;2023-07-20T06:05:12;17.00;99.90
23729;DHT22;12045;60.214;24.724;2023-07-20T06:07:40;17.10;99.90
23729;DHT22;12045;60.214;24.724;2023-07-20T06:10:08;17.10;99.90
23729;DHT22;12045;60.214;24.724;2023-07-20T06:12:37;17.20;99.90
23729;DHT22;12045;60.214;24.724;2023-07-20T06:15:05;17.30;99.90
23729;DHT22;12045;60.214;24.724;2023-07-20T06:17:34;17.20;99.90
23729;DHT22;12045;60.214;24.724;2023-07-20T06:20:05;17.30;99.90
23729;DHT22;12045;60.214;24.724;2023-07-20T06:22:34;17.40;99.90
23729;DHT22;12045;60.214;24.724;2023-07-20T06:25:06;17.50;99.90
23729;DHT22;12045;60.214;24.724;2023-07-20T06:27:34;17.60;99.90
23729;DHT22;12045;60.214;24.724;2023-07-20T06:30:04;17.60;99.90
23729;DHT22;12045;60.214;24.724;2023-07-20T06:32:32;17.80;99.90
23729;DHT22;12045;60.214;24.724;2023-07-20T06:35:01;17.90;99.90
23729;DHT22;12045;60.214;24.724;2023-07-20T06:37:31;17.90;99.90
23729;DHT22;12045;60.214;24.724;2023-07-20T06:40:00;18.10;99.90
23729;DHT22;12045;60.214;24.724;2023-07-20T06:42:42;18.20;99.90
23729;DHT22;12045;60.214;24.724;2023-07-20T06:45:18;18.10;99.90
23729;DHT22;12045;60.214;24.724;2023-07-20T06:47:45;18.20;99.90
23729;DHT22;12045;60.214;24.724;2023-07-20T06:50:13;18.10;99.90
23729;DHT22;12045;60.214;24.724;2023-07-20T06:52:44;18.20;99.90
23729;DHT22;12045;60.214;24.724;2023-07-20T06:55:15;18.20;99.90
23729;DHT22;12045;60.214;24.724;2023-07-20T06:57:51;18.20;99.90
23729;DHT22;12045;60.214;24.724;2023-07-20T07:00:28;18.20;99.90
23729;DHT22;12045;60.214;24.724;2023-07-20T07:02:56;18.20;99.90
23729;DHT22;12045;60.214;24.724;2023-07-20T07:05:26;18.20;99.90
23729;DHT22;12045;60.214;24.724;2023-07-20T07:08:04;18.20;99.90
23729;DHT22;12045;60.214;24.724;2023-07-20T07:10:32;18.20;99.90
23729;DHT22;12045;60.214;24.724;2023-07-20T07:13:04;18.10;99.90
23729;DHT22;12045;60.214;24.724;2023-07-20T07:15:35;18.30;99.90
23729;DHT22;12045;60.214;24.724;2023-07-20T07:18:05;18.20;99.90
23729;DHT22;12045;60.214;24.724;2023-07-20T07:20:33;18.20;99.90
23729;DHT22;12045;60.214;24.724;2023-07-20T07:23:02;18.30;99.90
23729;DHT22;12045;60.214;24.724;2023-07-20T07:25:30;18.40;99.90
23729;DHT22;12045;60.214;24.724;2023-07-20T07:28:00;18.50;99.90
23729;DHT22;12045;60.214;24.724;2023-07-20T07:30:39;18.60;99.90
23729;DHT22;12045;60.214;24.724;2023-07-20T07:33:10;18.60;99.90
23729;DHT22;12045;60.214;24.724;2023-07-20T07:35:39;18.60;99.90
23729;DHT22;12045;60.214;24.724;2023-07-20T07:38:09;18.50;99.90
23729;DHT22;12045;60.214;24.724;2023-07-20T07:40:58;18.40;99.90
23729;DHT22;12045;60.214;24.724;2023-07-20T07:43:28;18.40;99.90
23729;DHT22;12045;60.214;24.724;2023-07-20T07:45:58;18.40;99.90
23729;DHT22;12045;60.214;24.724;2023-07-20T07:48:27;18.40;99.90
23729;DHT22;12045;60.214;24.724;2023-07-20T07:50:58;18.40;99.90
23729;DHT22;12045;60.214;24.724;2023-07-20T07:53:27;18.40;99.90
23729;DHT22;12045;60.214;24.724;2023-07-20T07:55:57;18.40;99.90
23729;DHT22;12045;60.214;24.724;2023-07-20T07:58:37;18.50;99.90
23729;DHT22;12045;60.214;24.724;2023-07-20T08:01:06;18.50;99.90
23729;DHT22;12045;60.214;24.724;2023-07-20T08:03:34;18.30;99.90
23729;DHT22;12045;60.214;24.724;2023-07-20T08:06:05;17.60;99.90
23729;DHT22;12045;60.214;24.724;2023-07-20T08:08:32;17.30;99.90
23729;DHT22;12045;60.214;24.724;2023-07-20T08:11:00;17.00;99.90
23729;DHT22;12045;60.214;24.724;2023-07-20T08:13:34;17.00;99.90
23729;DHT22;12045;60.214;24.724;2023-07-20T08:16:03;17.00;99.90
23729;DHT22;12045;60.214;24.724;2023-07-20T08:18:33;17.00;99.90
23729;DHT22;12045;60.214;24.724;2023-07-20T08:21:02;17.10;99.90
23729;DHT22;12045;60.214;24.724;2023-07-20T08:23:31;17.00;99.90
23729;DHT22;12045;60.214;24.724;2023-07-20T08:26:00;17.00;99.90
23729;DHT22;12045;60.214;24.724;2023-07-20T08:28:28;16.90;99.90
23729;DHT22;12045;60.214;24.724;2023-07-20T08:30:59;16.50;99.90
23729;DHT22;12045;60.214;24.724;2023-07-20T08:33:35;16.30;99.90
23729;DHT22;12045;60.214;24.724;2023-07-20T08:36:04;16.30;99.90
23729;DHT22;12045;60.214;24.724;2023-07-20T08:38:45;16.20;99.90
23729;DHT22;12045;60.214;24.724;2023-07-20T08:41:17;16.30;99.90
23729;DHT22;12045;60.214;24.724;2023-07-20T08:43:47;16.30;99.90
23729;DHT22;12045;60.214;24.724;2023-07-20T08:46:18;16.20;99.90
23729;DHT22;12045;60.214;24.724;2023-07-20T08:48:50;16.30;99.90
23729;DHT22;12045;60.214;24.724;2023-07-20T08:51:21;16.50;99.90
23729;DHT22;12045;60.214;24.724;2023-07-20T08:53:50;16.80;99.90
23729;DHT22;12045;60.214;24.724;2023-07-20T08:56:20;17.10;99.90
23729;DHT22;12045;60.214;24.724;2023-07-20T09:01:28;17.50;99.90
23729;DHT22;12045;60.214;24.724;2023-07-20T09:03:58;17.90;99.90
23729;DHT22;12045;60.214;24.724;2023-07-20T09:06:27;18.20;99.90
23729;DHT22;12045;60.214;24.724;2023-07-20T09:08:57;18.50;99.90
23729;DHT22;12045;60.214;24.724;2023-07-20T09:11:26;18.50;99.90
23729;DHT22;12045;60.214;24.724;2023-07-20T09:14:08;18.70;99.90
23729;DHT22;12045;60.214;24.724;2023-07-20T09:19:44;19.10;99.90
23729;DHT22;12045;60.214;24.724;2023-07-20T09:22:13;19.00;99.90
23729;DHT22;12045;60.214;24.724;2023-07-20T09:24:41;19.00;99.90
23729;DHT22;12045;60.214;24.724;2023-07-20T09:27:11;18.90;99.90
23729;DHT22;12045;60.214;24.724;2023-07-20T09:29:52;19.10;99.90
23729;DHT22;12045;60.214;24.724;2023-07-20T09:32:28;19.00;99.90
23729;DHT22;12045;60.214;24.724;2023-07-20T09:35:02;19.10;99.90
23729;DHT22;12045;60.214;24.724;2023-07-20T09:37:33;19.10;99.90
23729;DHT22;12045;60.214;24.724;2023-07-20T09:40:01;19.00;99.90
23729;DHT22;12045;60.214;24.724;2023-07-20T09:42:32;19.00;99.90
23729;DHT22;12045;60.214;24.724;2023-07-20T09:45:03;19.10;99.90
23729;DHT22;12045;60.214;24.724;2023-07-20T09:47:39;19.40;99.90
23729;DHT22;12045;60.214;24.724;2023-07-20T09:50:08;19.30;99.90
23729;DHT22;12045;60.214;24.724;2023-07-20T09:52:43;19.30;99.90
23729;DHT22;12045;60.214;24.724;2023-07-20T09:55:36;19.60;99.90
23729;DHT22;12045;60.214;24.724;2023-07-20T09:58:27;19.60;99.90
23729;DHT22;12045;60.214;24.724;2023-07-20T10:00:57;20.00;99.90
23729;DHT22;12045;60.214;24.724;2023-07-20T10:03:29;20.20;99.90
23729;DHT22;12045;60.214;24.724;2023-07-20T10:06:10;20.50;99.90
23729;DHT22;12045;60.214;24.724;2023-07-20T10:08:43;20.40;99.90
23729;DHT22;12045;60.214;24.724;2023-07-20T10:11:17;20.00;99.90
23729;DHT22;12045;60.214;24.724;2023-07-20T10:13:59;20.00;99.90
23729;DHT22;12045;60.214;24.724;2023-07-20T10:16:34;20.50;99.90
23729;DHT22;12045;60.214;24.724;2023-07-20T10:19:17;20.50;99.90
23729;DHT22;12045;60.214;24.724;2023-07-20T10:22:01;20.90;99.90
23729;DHT22;12045;60.214;24.724;2023-07-20T10:24:32;20.90;99.90
23729;DHT22;12045;60.214;24.724;2023-07-20T10:27:06;21.10;99.90
23729;DHT22;12045;60.214;24.724;2023-07-20T10:29:37;21.40;99.90
23729;DHT22;12045;60.214;24.724;2023-07-20T10:32:08;21.70;99.90
23729;DHT22;12045;60.214;24.724;2023-07-20T10:34:37;21.70;99.90
23729;DHT22;12045;60.214;24.724;2023-07-20T10:37:48;21.40;99.90
23729;DHT22;12045;60.214;24.724;2023-07-20T10:40:37;20.70;99.90
23729;DHT22;12045;60.214;24.724;2023-07-20T10:43:10;20.80;99.90
23729;DHT22;12045;60.214;24.724;2023-07-20T10:45:50;20.60;99.90
23729;DHT22;12045;60.214;24.724;2023-07-20T10:48:59;20.50;99.90
23729;DHT22;12045;60.214;24.724;2023-07-20T10:51:30;20.90;99.90
23729;DHT22;12045;60.214;24.724;2023-07-20T10:56:56;22.40;99.90
23729;DHT22;12045;60.214;24.724;2023-07-20T10:59:46;22.80;99.90
23729;DHT22;12045;60.214;24.724;2023-07-20T11:02:18;22.90;99.90
23729;DHT22;12045;60.214;24.724;2023-07-20T11:04:48;22.80;99.90
23729;DHT22;12045;60.214;24.724;2023-07-20T11:07:37;22.80;99.90
23729;DHT22;12045;60.214;24.724;2023-07-20T11:10:15;22.90;99.90
23729;DHT22;12045;60.214;24.724;2023-07-20T11:13:25;23.30;99.90
23729;DHT22;12045;60.214;24.724;2023-07-20T11:16:13;23.10;99.90
23729;DHT22;12045;60.214;24.724;2023-07-20T11:19:06;22.50;99.90
23729;DHT22;12045;60.214;24.724;2023-07-20T11:21:51;22.00;99.90
23729;DHT22;12045;60.214;24.724;2023-07-20T11:24:43;21.50;99.90
23729;DHT22;12045;60.214;24.724;2023-07-20T11:27:24;21.10;99.90
23729;DHT22;12045;60.214;24.724;2023-07-20T11:29:53;20.40;99.90
23729;DHT22;12045;60.214;24.724;2023-07-20T11:32:28;19.80;99.90
23729;DHT22;12045;60.214;24.724;2023-07-20T11:34:57;19.00;99.90
23729;DHT22;12045;60.214;24.724;2023-07-20T11:37:27;18.30;99.90
23729;DHT22;12045;60.214;24.724;2023-07-20T11:39:58;17.90;99.90
23729;DHT22;12045;60.214;24.724;2023-07-20T11:42:28;17.60;99.90
23729;DHT22;12045;60.214;24.724;2023-07-20T11:56:31;16.00;99.90
23729;DHT22;12045;60.214;24.724;2023-07-20T12:24:08;18.40;99.90
23729;DHT22;12045;60.214;24.724;2023-07-20T12:26:58;18.40;99.90
23729;DHT22;12045;60.214;24.724;2023-07-20T12:29:42;18.30;99.90
23729;DHT22;12045;60.214;24.724;2023-07-20T12:32:11;18.20;99.90
23729;DHT22;12045;60.214;24.724;2023-07-20T12:34:42;18.30;99.90
23729;DHT22;12045;60.214;24.724;2023-07-20T12:37:20;18.00;99.90
23729;DHT22;12045;60.214;24.724;2023-07-20T12:39:50;18.20;99.90
23729;DHT22;12045;60.214;24.724;2023-07-20T12:42:20;18.30;99.90
23729;DHT22;12045;60.214;24.724;2023-07-20T12:44:49;18.30;99.90
23729;DHT22;12045;60.214;24.724;2023-07-20T12:47:19;18.20;99.90
23729;DHT22;12045;60.214;24.724;2023-07-20T12:49:48;18.10;99.90
23729;DHT22;12045;60.214;24.724;2023-07-20T12:52:16;18.20;99.90
23729;DHT22;12045;60.214;24.724;2023-07-20T12:55:09;18.30;99.90
23729;DHT22;12045;60.214;24.724;2023-07-20T12:57:40;18.00;99.90
23729;DHT22;12045;60.214;24.724;2023-07-20T13:00:11;17.90;99.90
23729;DHT22;12045;60.214;24.724;2023-07-20T13:02:40;18.10;99.90
23729;DHT22;12045;60.214;24.724;2023-07-20T13:05:11;18.30;99.90
23729;DHT22;12045;60.214;24.724;2023-07-20T13:07:43;18.60;99.90
23729;DHT22;12045;60.214;24.724;2023-07-20T13:10:16;18.80;99.90
23729;DHT22;12045;60.214;24.724;2023-07-20T13:12:51;18.80;99.90
23729;DHT22;12045;60.214;24.724;2023-07-20T13:15:24;18.80;99.90
23729;DHT22;12045;60.214;24.724;2023-07-20T13:17:53;18.90;99.90
23729;DHT22;12045;60.214;24.724;2023-07-20T13:20:26;19.20;99.90
23729;DHT22;12045;60.214;24.724;2023-07-20T13:22:55;19.40;99.90
23729;DHT22;12045;60.214;24.724;2023-07-20T13:25:25;19.80;99.90
23729;DHT22;12045;60.214;24.724;2023-07-20T13:27:55;20.10;99.90
23729;DHT22;12045;60.214;24.724;2023-07-20T13:30:25;20.20;99.90
23729;DHT22;12045;60.214;24.724;2023-07-20T13:32:54;20.40;99.90
23729;DHT22;12045;60.214;24.724;2023-07-20T13:35:23;20.20;99.90
23729;DHT22;12045;60.214;24.724;2023-07-20T13:37:52;20.40;99.90
23729;DHT22;12045;60.214;24.724;2023-07-20T13:40:21;20.20;99.90
23729;DHT22;12045;60.214;24.724;2023-07-20T13:42:51;20.40;99.90
23729;DHT22;12045;60.214;24.724;2023-07-20T13:45:23;20.20;99.90
23729;DHT22;12045;60.214;24.724;2023-07-20T13:47:54;20.30;99.90
23729;DHT22;12045;60.214;24.724;2023-07-20T13:50:23;20.30;99.90
23729;DHT22;12045;60.214;24.724;2023-07-20T13:53:08;20.30;99.90
23729;DHT22;12045;60.214;24.724;2023-07-20T13:55:42;20.30;99.90
23729;DHT22;12045;60.214;24.724;2023-07-20T13:58:13;20.30;99.90
23729;DHT22;12045;60.214;24.724;2023-07-20T14:00:44;20.20;99.90
23729;DHT22;12045;60.214;24.724;2023-07-20T14:03:15;20.10;99.90
23729;DHT22;12045;60.214;24.724;2023-07-20T14:05:47;20.00;99.90
23729;DHT22;12045;60.214;24.724;2023-07-20T14:08:20;19.80;99.90
23729;DHT22;12045;60.214;24.724;2023-07-20T14:10:48;19.70;99.90
23729;DHT22;12045;60.214;24.724;2023-07-20T14:13:19;19.70;99.90
23729;DHT22;12045;60.214;24.724;2023-07-20T14:30:15;19.90;99.90
23729;DHT22;12045;60.214;24.724;2023-07-20T14:32:44;19.80;99.90
23729;DHT22;12045;60.214;24.724;2023-07-20T14:35:21;19.80;99.90
23729;DHT22;12045;60.214;24.724;2023-07-20T14:37:54;19.80;99.90
23729;DHT22;12045;60.214;24.724;2023-07-20T14:40:26;19.50;99.90
23729;DHT22;12045;60.214;24.724;2023-07-20T14:42:55;19.70;99.90
23729;DHT22;12045;60.214;24.724;2023-07-20T14:45:23;19.80;99.90
23729;DHT22;12045;60.214;24.724;2023-07-20T14:56:09;19.70;99.90
23729;DHT22;12045;60.214;24.724;2023-07-20T14:58:41;19.70;99.90
23729;DHT22;12045;60.214;24.724;2023-07-20T15:01:17;19.80;99.90
23729;DHT22;12045;60.214;24.724;2023-07-20T15:03:45;19.80;99.90
23729;DHT22;12045;60.214;24.724;2023-07-20T15:09:09;19.80;99.90
23729;DHT22;12045;60.214;24.724;2023-07-20T15:11:39;19.90;99.90
23729;DHT22;12045;60.214;24.724;2023-07-20T15:14:08;20.00;99.90
23729;DHT22;12045;60.214;24.724;2023-07-20T15:19:13;20.10;99.90
23729;DHT22;12045;60.214;24.724;2023-07-20T15:21:42;20.10;99.90
23729;DHT22;12045;60.214;24.724;2023-07-20T15:26:46;20.30;99.90
23729;DHT22;12045;60.214;24.724;2023-07-20T15:35:02;20.00;99.90
23729;DHT22;12045;60.214;24.724;2023-07-20T15:44:03;20.60;99.90
23729;DHT22;12045;60.214;24.724;2023-07-20T15:51:55;20.20;99.90
23729;DHT22;12045;60.214;24.724;2023-07-20T15:55:07;20.20;99.90
23729;DHT22;12045;60.214;24.724;2023-07-20T16:02:58;19.80;99.90
23729;DHT22;12045;60.214;24.724;2023-07-20T16:05:27;19.80;99.90
23729;DHT22;12045;60.214;24.724;2023-07-20T16:07:58;19.90;99.90
23729;DHT22;12045;60.214;24.724;2023-07-20T16:10:27;20.00;99.90
23729;DHT22;12045;60.214;24.724;2023-07-20T16:21:03;20.10;99.90
23729;DHT22;12045;60.214;24.724;2023-07-20T16:29:21;19.60;99.90
23729;DHT22;12045;60.214;24.724;2023-07-20T16:31:52;19.40;99.90
23729;DHT22;12045;60.214;24.724;2023-07-20T16:34:30;19.40;99.90
23729;DHT22;12045;60.214;24.724;2023-07-20T16:37:15;19.50;99.90
23729;DHT22;12045;60.214;24.724;2023-07-20T16:39:51;19.40;99.90
23729;DHT22;12045;60.214;24.724;2023-07-20T16:42:19;19.60;99.90
23729;DHT22;12045;60.214;24.724;2023-07-20T16:47:39;19.70;99.90
23729;DHT22;12045;60.214;24.724;2023-07-20T16:52:57;19.60;99.90
23729;DHT22;12045;60.214;24.724;2023-07-20T16:55:28;19.60;99.90
23729;DHT22;12045;60.214;24.724;2023-07-20T16:58:08;19.50;99.90
23729;DHT22;12045;60.214;24.724;2023-07-20T17:00:37;19.50;99.90
23729;DHT22;12045;60.214;24.724;2023-07-20T17:03:07;19.60;99.90
23729;DHT22;12045;60.214;24.724;2023-07-20T17:05:36;19.70;99.90
23729;DHT22;12045;60.214;24.724;2023-07-20T17:13:41;19.70;99.90
23729;DHT22;12045;60.214;24.724;2023-07-20T17:16:12;19.70;99.90
23729;DHT22;12045;60.214;24.724;2023-07-20T17:21:17;19.60;99.90
23729;DHT22;12045;60.214;24.724;2023-07-20T17:23:49;19.50;99.90
23729;DHT22;12045;60.214;24.724;2023-07-20T17:26:20;19.40;99.90
23729;DHT22;12045;60.214;24.724;2023-07-20T17:28:51;19.40;99.90
23729;DHT22;12045;60.214;24.724;2023-07-20T17:31:19;19.40;99.90
23729;DHT22;12045;60.214;24.724;2023-07-20T17:33:50;19.50;99.90
23729;DHT22;12045;60.214;24.724;2023-07-20T17:36:21;19.50;99.90
23729;DHT22;12045;60.214;24.724;2023-07-20T17:38:54;19.50;99.90
23729;DHT22;12045;60.214;24.724;2023-07-20T17:41:25;19.50;99.90
23729;DHT22;12045;60.214;24.724;2023-07-20T17:43:57;19.50;99.90
23729;DHT22;12045;60.214;24.724;2023-07-20T17:46:27;19.50;99.90
23729;DHT22;12045;60.214;24.724;2023-07-20T17:49:02;19.40;99.90
23729;DHT22;12045;60.214;24.724;2023-07-20T17:51:34;19.40;99.90
23729;DHT22;12045;60.214;24.724;2023-07-20T17:59:53;19.10;99.90
23729;DHT22;12045;60.214;24.724;2023-07-20T18:02:25;19.00;99.90
23729;DHT22;12045;60.214;24.724;2023-07-20T18:13:12;19.10;99.90
23729;DHT22;12045;60.214;24.724;2023-07-20T18:15:41;19.20;99.90
23729;DHT22;12045;60.214;24.724;2023-07-20T18:18:10;19.30;99.90
23729;DHT22;12045;60.214;24.724;2023-07-20T18:23:16;19.40;99.90
23729;DHT22;12045;60.214;24.724;2023-07-20T18:25:47;19.50;99.90
23729;DHT22;12045;60.214;24.724;2023-07-20T18:30:54;19.50;99.90
23729;DHT22;12045;60.214;24.724;2023-07-20T18:33:22;19.30;99.90
23729;DHT22;12045;60.214;24.724;2023-07-20T18:35:53;19.10;99.90
23729;DHT22;12045;60.214;24.724;2023-07-20T18:41:15;18.70;99.90
23729;DHT22;12045;60.214;24.724;2023-07-20T18:43:45;18.60;99.90
23729;DHT22;12045;60.214;24.724;2023-07-20T18:46:16;18.40;99.90
23729;DHT22;12045;60.214;24.724;2023-07-20T18:48:48;18.30;99.90
23729;DHT22;12045;60.214;24.724;2023-07-20T18:56:37;18.20;99.90
23729;DHT22;12045;60.214;24.724;2023-07-20T19:01:42;18.00;99.90
23729;DHT22;12045;60.214;24.724;2023-07-20T19:04:10;17.90;99.90
23729;DHT22;12045;60.214;24.724;2023-07-20T19:06:47;17.80;99.90
23729;DHT22;12045;60.214;24.724;2023-07-20T19:09:29;17.20;99.90
23729;DHT22;12045;60.214;24.724;2023-07-20T19:23:00;17.50;99.90